sensor_id;sensor_type;location;lat;lon;timestamp;P1;durP1;ratioP1;P2;durP2;ratioP2
3527;SDS011;1778;47.966;7.854;2022-08-04T00:01:02;5.43;;;5.13;;
3527;SDS011;1778;47.966;7.854;2022-08-04T00:02:44;4.60;;;4.30;;
3527;SDS011;1778;47.966;7.854;2022-08-04T00:03:42;4.85;;;4.53;;
3527;SDS011;1778;47.966;7.854;2022-08-04T00:06:09;4.55;;;4.25;;
3527;SDS011;1778;47.966;7.854;2022-08-04T00:07:48;5.03;;;4.60;;
3527;SDS011;1778;47.966;7.854;2022-08-04T00:09:16;4.85;;;4.65;;
3527;SDS011;1778;47.966;7.854;2022-08-04T00:10:32;4.82;;;4.60;;
3527;SDS011;1778;47.966;7.854;2022-08-04T00:11:36;4.75;;;4.55;;
3527;SDS011;1778;47.966;7.854;2022-08-04T00:12:42;5.25;;;4.95;;
3527;SDS011;1778;47.966;7.854;2022-08-04T00:13:49;5.00;;;4.70;;
3527;SDS011;1778;47.966;7.854;2022-08-04T00:15:06;5.95;;;4.47;;
3527;SDS011;1778;47.966;7.854;2022-08-04T00:16:16;4.55;;;4.30;;
3527;SDS011;1778;47.966;7.854;2022-08-04T00:17:22;6.32;;;4.57;;
3527;SDS011;1778;47.966;7.854;2022-08-04T00:18:38;5.30;;;4.97;;
3527;SDS011;1778;47.966;7.854;2022-08-04T00:19:43;5.07;;;4.78;;
3527;SDS011;1778;47.966;7.854;2022-08-04T00:20:47;5.03;;;4.72;;
3527;SDS011;1778;47.966;7.854;2022-08-04T00:21:54;4.93;;;4.63;;
3527;SDS011;1778;47.966;7.854;2022-08-04T00:23:00;4.97;;;4.68;;
3527;SDS011;1778;47.966;7.854;2022-08-04T00:24:02;4.43;;;4.22;;
3527;SDS011;1778;47.966;7.854;2022-08-04T00:25:12;4.85;;;4.55;;
3527;SDS011;1778;47.966;7.854;2022-08-04T00:26:15;4.50;;;4.10;;
3527;SDS011;1778;47.966;7.854;2022-08-04T00:27:17;5.40;;;5.00;;
3527;SDS011;1778;47.966;7.854;2022-08-04T00:28:20;8.00;;;4.63;;
3527;SDS011;1778;47.966;7.854;2022-08-04T00:29:21;4.80;;;4.40;;
3527;SDS011;1778;47.966;7.854;2022-08-04T00:30:24;4.88;;;4.57;;
3527;SDS011;1778;47.966;7.854;2022-08-04T00:31:25;4.30;;;4.10;;
3527;SDS011;1778;47.966;7.854;2022-08-04T00:32:48;4.50;;;4.30;;
3527;SDS011;1778;47.966;7.854;2022-08-04T00:33:50;4.72;;;4.43;;
3527;SDS011;1778;47.966;7.854;2022-08-04T00:34:53;4.57;;;4.38;;
3527;SDS011;1778;47.966;7.854;2022-08-04T00:35:55;4.82;;;4.53;;
3527;SDS011;1778;47.966;7.854;2022-08-04T00:36:59;4.68;;;4.43;;
3527;SDS011;1778;47.966;7.854;2022-08-04T00:38:01;4.50;;;4.20;;
3527;SDS011;1778;47.966;7.854;2022-08-04T00:39:04;4.60;;;4.38;;
3527;SDS011;1778;47.966;7.854;2022-08-04T00:40:21;5.13;;;4.72;;
3527;SDS011;1778;47.966;7.854;2022-08-04T00:43:33;5.05;;;4.53;;
3527;SDS011;1778;47.966;7.854;2022-08-04T00:49:13;4.90;;;4.70;;
3527;SDS011;1778;47.966;7.854;2022-08-04T00:52:00;4.68;;;4.38;;
3527;SDS011;1778;47.966;7.854;2022-08-04T01:00:36;4.40;;;4.20;;
3527;SDS011;1778;47.966;7.854;2022-08-04T01:09:47;5.03;;;4.72;;
3527;SDS011;1778;47.966;7.854;2022-08-04T01:10:58;4.97;;;4.68;;
3527;SDS011;1778;47.966;7.854;2022-08-04T01:16:06;4.82;;;4.53;;
3527;SDS011;1778;47.966;7.854;2022-08-04T01:17:18;4.88;;;4.57;;
3527;SDS011;1778;47.966;7.854;2022-08-04T01:18:29;5.93;;;4.53;;
3527;SDS011;1778;47.966;7.854;2022-08-04T01:24:58;4.50;;;4.30;;
3527;SDS011;1778;47.966;7.854;2022-08-04T01:29:14;4.78;;;4.47;;
3527;SDS011;1778;47.966;7.854;2022-08-04T01:30:16;4.78;;;4.55;;
3527;SDS011;1778;47.966;7.854;2022-08-04T01:31:20;4.15;;;3.95;;
3527;SDS011;1778;47.966;7.854;2022-08-04T01:32:36;5.00;;;4.60;;
3527;SDS011;1778;47.966;7.854;2022-08-04T01:33:41;4.93;;;4.65;;
3527;SDS011;1778;47.966;7.854;2022-08-04T01:35:10;6.85;;;4.38;;
3527;SDS011;1778;47.966;7.854;2022-08-04T01:39:21;4.95;;;4.65;;
3527;SDS011;1778;47.966;7.854;2022-08-04T01:40:41;4.30;;;4.10;;
3527;SDS011;1778;47.966;7.854;2022-08-04T01:41:45;5.00;;;4.80;;
3527;SDS011;1778;47.966;7.854;2022-08-04T01:42:58;4.80;;;4.40;;
3527;SDS011;1778;47.966;7.854;2022-08-04T01:44:02;4.93;;;4.63;;
3527;SDS011;1778;47.966;7.854;2022-08-04T01:45:07;4.45;;;4.25;;
3527;SDS011;1778;47.966;7.854;2022-08-04T01:46:11;5.25;;;4.75;;
3527;SDS011;1778;47.966;7.854;2022-08-04T01:47:16;4.47;;;4.28;;
3527;SDS011;1778;47.966;7.854;2022-08-04T01:48:22;4.47;;;4.28;;
3527;SDS011;1778;47.966;7.854;2022-08-04T01:49:27;4.50;;;4.30;;
3527;SDS011;1778;47.966;7.854;2022-08-04T01:50:40;4.47;;;4.28;;
3527;SDS011;1778;47.966;7.854;2022-08-04T01:51:44;4.90;;;4.70;;
3527;SDS011;1778;47.966;7.854;2022-08-04T01:52:51;4.78;;;4.47;;
3527;SDS011;1778;47.966;7.854;2022-08-04T01:53:54;4.80;;;4.53;;
3527;SDS011;1778;47.966;7.854;2022-08-04T01:54:55;4.70;;;4.50;;
3527;SDS011;1778;47.966;7.854;2022-08-04T01:55:57;4.50;;;4.30;;
3527;SDS011;1778;47.966;7.854;2022-08-04T01:57:01;4.50;;;4.30;;
3527;SDS011;1778;47.966;7.854;2022-08-04T01:58:27;6.07;;;4.35;;
3527;SDS011;1778;47.966;7.854;2022-08-04T01:59:30;4.70;;;4.50;;
3527;SDS011;1778;47.966;7.854;2022-08-04T02:00:33;4.10;;;3.90;;
3527;SDS011;1778;47.966;7.854;2022-08-04T02:01:38;5.70;;;4.47;;
3527;SDS011;1778;47.966;7.854;2022-08-04T02:02:40;5.30;;;4.80;;
3527;SDS011;1778;47.966;7.854;2022-08-04T02:03:43;4.75;;;4.45;;
3527;SDS011;1778;47.966;7.854;2022-08-04T02:05:08;5.30;;;4.38;;
3527;SDS011;1778;47.966;7.854;2022-08-04T02:06:26;4.63;;;4.32;;
3527;SDS011;1778;47.966;7.854;2022-08-04T02:14:29;5.10;;;4.80;;
3527;SDS011;1778;47.966;7.854;2022-08-04T02:15:52;4.80;;;4.40;;
3527;SDS011;1778;47.966;7.854;2022-08-04T02:18:38;5.30;;;4.90;;
3527;SDS011;1778;47.966;7.854;2022-08-04T02:20:06;4.20;;;4.00;;
3527;SDS011;1778;47.966;7.854;2022-08-04T02:21:12;4.78;;;4.57;;
3527;SDS011;1778;47.966;7.854;2022-08-04T02:22:16;4.53;;;4.32;;
3527;SDS011;1778;47.966;7.854;2022-08-04T02:23:38;4.53;;;4.32;;
3527;SDS011;1778;47.966;7.854;2022-08-04T02:24:42;4.20;;;3.90;;
3527;SDS011;1778;47.966;7.854;2022-08-04T02:25:54;5.18;;;4.68;;
3527;SDS011;1778;47.966;7.854;2022-08-04T02:26:57;4.20;;;4.00;;
3527;SDS011;1778;47.966;7.854;2022-08-04T02:30:18;4.73;;;4.50;;
3527;SDS011;1778;47.966;7.854;2022-08-04T02:32:29;4.93;;;4.63;;
3527;SDS011;1778;47.966;7.854;2022-08-04T02:33:42;5.10;;;4.00;;
3527;SDS011;1778;47.966;7.854;2022-08-04T02:36:04;4.88;;;4.40;;
3527;SDS011;1778;47.966;7.854;2022-08-04T02:37:10;4.57;;;4.00;;
3527;SDS011;1778;47.966;7.854;2022-08-04T02:39:38;4.20;;;4.00;;
3527;SDS011;1778;47.966;7.854;2022-08-04T02:40:50;4.17;;;3.97;;
3527;SDS011;1778;47.966;7.854;2022-08-04T02:42:01;4.60;;;4.40;;
3527;SDS011;1778;47.966;7.854;2022-08-04T02:43:04;4.57;;;4.30;;
3527;SDS011;1778;47.966;7.854;2022-08-04T02:44:08;5.18;;;4.88;;
3527;SDS011;1778;47.966;7.854;2022-08-04T02:45:11;4.60;;;4.40;;
3527;SDS011;1778;47.966;7.854;2022-08-04T02:46:15;4.83;;;4.20;;
3527;SDS011;1778;47.966;7.854;2022-08-04T02:47:21;4.80;;;4.50;;
3527;SDS011;1778;47.966;7.854;2022-08-04T02:48:46;4.40;;;4.20;;
3527;SDS011;1778;47.966;7.854;2022-08-04T02:49:50;4.77;;;4.57;;
3527;SDS011;1778;47.966;7.854;2022-08-04T02:50:53;4.77;;;4.47;;
3527;SDS011;1778;47.966;7.854;2022-08-04T02:51:56;4.72;;;4.47;;
3527;SDS011;1778;47.966;7.854;2022-08-04T02:52:58;4.53;;;4.23;;
3527;SDS011;1778;47.966;7.854;2022-08-04T02:54:03;4.95;;;4.57;;
3527;SDS011;1778;47.966;7.854;2022-08-04T02:55:06;4.40;;;4.20;;
3527;SDS011;1778;47.966;7.854;2022-08-04T02:56:12;4.18;;;3.97;;
3527;SDS011;1778;47.966;7.854;2022-08-04T02:57:18;4.85;;;4.57;;
3527;SDS011;1778;47.966;7.854;2022-08-04T02:58:23;4.30;;;4.10;;
3527;SDS011;1778;47.966;7.854;2022-08-04T02:59:35;4.50;;;4.30;;
3527;SDS011;1778;47.966;7.854;2022-08-04T03:00:59;5.33;;;4.80;;
3527;SDS011;1778;47.966;7.854;2022-08-04T03:02:01;4.28;;;3.97;;
3527;SDS011;1778;47.966;7.854;2022-08-04T03:03:19;4.70;;;4.40;;
3527;SDS011;1778;47.966;7.854;2022-08-04T03:05:52;4.63;;;4.43;;
3527;SDS011;1778;47.966;7.854;2022-08-04T03:07:10;4.90;;;4.60;;
3527;SDS011;1778;47.966;7.854;2022-08-04T03:08:29;5.00;;;4.70;;
3527;SDS011;1778;47.966;7.854;2022-08-04T03:09:57;4.63;;;4.43;;
3527;SDS011;1778;47.966;7.854;2022-08-04T03:14:07;4.70;;;4.27;;
3527;SDS011;1778;47.966;7.854;2022-08-04T03:16:55;4.47;;;4.28;;
3527;SDS011;1778;47.966;7.854;2022-08-04T03:19:57;4.63;;;4.40;;
3527;SDS011;1778;47.966;7.854;2022-08-04T03:22:58;4.60;;;4.30;;
3527;SDS011;1778;47.966;7.854;2022-08-04T03:27:54;4.40;;;4.20;;
3527;SDS011;1778;47.966;7.854;2022-08-04T03:29:30;4.50;;;4.30;;
3527;SDS011;1778;47.966;7.854;2022-08-04T03:37:22;4.67;;;4.47;;
3527;SDS011;1778;47.966;7.854;2022-08-04T03:49:55;5.17;;;4.87;;
3527;SDS011;1778;47.966;7.854;2022-08-04T03:53:08;4.30;;;4.10;;
3527;SDS011;1778;47.966;7.854;2022-08-04T03:58:07;4.90;;;4.60;;
3527;SDS011;1778;47.966;7.854;2022-08-04T04:03:49;4.70;;;4.50;;
3527;SDS011;1778;47.966;7.854;2022-08-04T04:07:14;5.37;;;5.00;;
3527;SDS011;1778;47.966;7.854;2022-08-04T04:11:42;4.80;;;4.50;;
3527;SDS011;1778;47.966;7.854;2022-08-04T04:15:18;4.93;;;4.63;;
3527;SDS011;1778;47.966;7.854;2022-08-04T04:16:48;5.07;;;4.57;;
3527;SDS011;1778;47.966;7.854;2022-08-04T04:30:07;4.90;;;4.60;;
3527;SDS011;1778;47.966;7.854;2022-08-04T04:31:36;4.53;;;4.23;;
3527;SDS011;1778;47.966;7.854;2022-08-04T04:35:32;6.67;;;4.37;;
3527;SDS011;1778;47.966;7.854;2022-08-04T04:40:59;4.80;;;4.60;;
3527;SDS011;1778;47.966;7.854;2022-08-04T04:50:34;5.00;;;4.70;;
3527;SDS011;1778;47.966;7.854;2022-08-04T04:53:44;4.57;;;4.37;;
3527;SDS011;1778;47.966;7.854;2022-08-04T04:55:32;4.78;;;4.57;;
3527;SDS011;1778;47.966;7.854;2022-08-04T04:57:28;4.57;;;4.32;;
3527;SDS011;1778;47.966;7.854;2022-08-04T04:58:55;5.03;;;4.63;;
3527;SDS011;1778;47.966;7.854;2022-08-04T05:00:02;6.50;;;4.73;;
3527;SDS011;1778;47.966;7.854;2022-08-04T05:08:16;5.67;;;5.07;;
3527;SDS011;1778;47.966;7.854;2022-08-04T05:12:47;4.47;;;4.28;;
3527;SDS011;1778;47.966;7.854;2022-08-04T05:14:19;4.60;;;4.40;;
3527;SDS011;1778;47.966;7.854;2022-08-04T05:15:42;5.40;;;4.90;;
3527;SDS011;1778;47.966;7.854;2022-08-04T05:16:50;4.80;;;4.60;;
3527;SDS011;1778;47.966;7.854;2022-08-04T05:18:01;4.73;;;4.53;;
3527;SDS011;1778;47.966;7.854;2022-08-04T05:22:55;5.60;;;5.07;;
3527;SDS011;1778;47.966;7.854;2022-08-04T05:24:01;4.90;;;4.60;;
3527;SDS011;1778;47.966;7.854;2022-08-04T05:25:14;4.55;;;4.30;;
3527;SDS011;1778;47.966;7.854;2022-08-04T05:26:25;5.00;;;4.70;;
3527;SDS011;1778;47.966;7.854;2022-08-04T05:27:35;4.43;;;4.22;;
3527;SDS011;1778;47.966;7.854;2022-08-04T05:28:51;4.70;;;4.30;;
3527;SDS011;1778;47.966;7.854;2022-08-04T05:29:56;5.07;;;4.77;;
3527;SDS011;1778;47.966;7.854;2022-08-04T05:31:04;5.00;;;4.70;;
3527;SDS011;1778;47.966;7.854;2022-08-04T05:32:15;4.80;;;4.50;;
3527;SDS011;1778;47.966;7.854;2022-08-04T05:33:21;4.72;;;4.53;;
3527;SDS011;1778;47.966;7.854;2022-08-04T05:34:30;4.80;;;4.50;;
3527;SDS011;1778;47.966;7.854;2022-08-04T05:35:48;4.60;;;4.20;;
3527;SDS011;1778;47.966;7.854;2022-08-04T05:37:15;5.70;;;4.60;;
3527;SDS011;1778;47.966;7.854;2022-08-04T05:38:20;7.05;;;4.60;;
3527;SDS011;1778;47.966;7.854;2022-08-04T05:39:35;5.20;;;4.90;;
3527;SDS011;1778;47.966;7.854;2022-08-04T05:40:47;4.90;;;4.50;;
3527;SDS011;1778;47.966;7.854;2022-08-04T05:41:50;5.53;;;5.13;;
3527;SDS011;1778;47.966;7.854;2022-08-04T05:42:58;5.22;;;4.82;;
3527;SDS011;1778;47.966;7.854;2022-08-04T05:44:01;5.80;;;4.95;;
3527;SDS011;1778;47.966;7.854;2022-08-04T05:45:05;4.93;;;4.63;;
3527;SDS011;1778;47.966;7.854;2022-08-04T05:46:09;4.45;;;4.15;;
3527;SDS011;1778;47.966;7.854;2022-08-04T05:47:12;5.75;;;4.50;;
3527;SDS011;1778;47.966;7.854;2022-08-04T05:48:14;6.07;;;4.93;;
3527;SDS011;1778;47.966;7.854;2022-08-04T05:49:17;4.65;;;4.35;;
3527;SDS011;1778;47.966;7.854;2022-08-04T05:50:22;4.55;;;4.30;;
3527;SDS011;1778;47.966;7.854;2022-08-04T05:51:25;4.47;;;4.22;;
3527;SDS011;1778;47.966;7.854;2022-08-04T05:52:29;4.60;;;4.30;;
3527;SDS011;1778;47.966;7.854;2022-08-04T05:53:32;5.30;;;4.80;;
3527;SDS011;1778;47.966;7.854;2022-08-04T05:54:35;4.40;;;4.15;;
3527;SDS011;1778;47.966;7.854;2022-08-04T05:55:38;5.53;;;4.63;;
3527;SDS011;1778;47.966;7.854;2022-08-04T05:56:59;7.45;;;5.38;;
3527;SDS011;1778;47.966;7.854;2022-08-04T05:58:04;5.40;;;4.90;;
3527;SDS011;1778;47.966;7.854;2022-08-04T05:59:07;5.22;;;4.85;;
3527;SDS011;1778;47.966;7.854;2022-08-04T06:00:11;5.22;;;4.80;;
3527;SDS011;1778;47.966;7.854;2022-08-04T06:01:33;5.40;;;4.80;;
3527;SDS011;1778;47.966;7.854;2022-08-04T06:02:56;5.63;;;5.13;;
3527;SDS011;1778;47.966;7.854;2022-08-04T06:04:00;8.30;;;4.45;;
3527;SDS011;1778;47.966;7.854;2022-08-04T06:05:08;5.35;;;5.05;;
3527;SDS011;1778;47.966;7.854;2022-08-04T06:06:11;6.03;;;4.60;;
3527;SDS011;1778;47.966;7.854;2022-08-04T06:07:15;6.53;;;4.82;;
3527;SDS011;1778;47.966;7.854;2022-08-04T06:08:17;5.70;;;5.30;;
3527;SDS011;1778;47.966;7.854;2022-08-04T06:09:19;4.68;;;4.28;;
3527;SDS011;1778;47.966;7.854;2022-08-04T06:10:21;4.53;;;4.13;;
3527;SDS011;1778;47.966;7.854;2022-08-04T06:11:30;5.32;;;4.57;;
3527;SDS011;1778;47.966;7.854;2022-08-04T06:12:57;5.28;;;4.97;;
3527;SDS011;1778;47.966;7.854;2022-08-04T06:14:04;5.57;;;5.07;;
3527;SDS011;1778;47.966;7.854;2022-08-04T06:15:10;4.60;;;4.32;;
3527;SDS011;1778;47.966;7.854;2022-08-04T06:16:18;5.20;;;4.80;;
3527;SDS011;1778;47.966;7.854;2022-08-04T06:17:35;5.38;;;4.97;;
3527;SDS011;1778;47.966;7.854;2022-08-04T06:19:02;5.07;;;4.82;;
3527;SDS011;1778;47.966;7.854;2022-08-04T06:20:27;5.05;;;4.75;;
3527;SDS011;1778;47.966;7.854;2022-08-04T06:21:36;5.15;;;4.88;;
3527;SDS011;1778;47.966;7.854;2022-08-04T06:22:40;4.68;;;4.38;;
3527;SDS011;1778;47.966;7.854;2022-08-04T06:23:43;5.20;;;4.90;;
3527;SDS011;1778;47.966;7.854;2022-08-04T06:24:56;4.68;;;4.38;;
3527;SDS011;1778;47.966;7.854;2022-08-04T06:25:59;4.75;;;4.45;;
3527;SDS011;1778;47.966;7.854;2022-08-04T06:27:02;5.30;;;4.80;;
3527;SDS011;1778;47.966;7.854;2022-08-04T06:28:05;6.25;;;4.80;;
3527;SDS011;1778;47.966;7.854;2022-08-04T06:29:08;5.03;;;4.72;;
3527;SDS011;1778;47.966;7.854;2022-08-04T06:30:27;6.95;;;5.40;;
3527;SDS011;1778;47.966;7.854;2022-08-04T06:31:32;5.93;;;4.72;;
3527;SDS011;1778;47.966;7.854;2022-08-04T06:33:09;4.53;;;4.32;;
3527;SDS011;1778;47.966;7.854;2022-08-04T06:34:25;5.90;;;5.50;;
3527;SDS011;1778;47.966;7.854;2022-08-04T06:35:28;5.15;;;4.85;;
3527;SDS011;1778;47.966;7.854;2022-08-04T06:36:31;4.82;;;4.53;;
3527;SDS011;1778;47.966;7.854;2022-08-04T06:37:36;5.38;;;5.07;;
3527;SDS011;1778;47.966;7.854;2022-08-04T06:38:44;5.00;;;4.75;;
3527;SDS011;1778;47.966;7.854;2022-08-04T06:39:59;5.40;;;5.00;;
3527;SDS011;1778;47.966;7.854;2022-08-04T06:41:25;5.80;;;5.40;;
3527;SDS011;1778;47.966;7.854;2022-08-04T06:42:29;5.65;;;5.22;;
3527;SDS011;1778;47.966;7.854;2022-08-04T06:43:31;5.90;;;5.35;;
3527;SDS011;1778;47.966;7.854;2022-08-04T06:44:43;6.18;;;5.57;;
3527;SDS011;1778;47.966;7.854;2022-08-04T06:45:46;5.13;;;4.60;;
3527;SDS011;1778;47.966;7.854;2022-08-04T06:46:49;5.78;;;5.28;;
3527;SDS011;1778;47.966;7.854;2022-08-04T06:47:52;5.82;;;5.35;;
3527;SDS011;1778;47.966;7.854;2022-08-04T06:48:56;5.20;;;4.90;;
3527;SDS011;1778;47.966;7.854;2022-08-04T06:49:59;5.03;;;4.63;;
3527;SDS011;1778;47.966;7.854;2022-08-04T06:51:22;4.65;;;4.45;;
3527;SDS011;1778;47.966;7.854;2022-08-04T06:52:38;5.30;;;4.80;;
3527;SDS011;1778;47.966;7.854;2022-08-04T06:53:43;4.97;;;4.68;;
3527;SDS011;1778;47.966;7.854;2022-08-04T06:54:47;5.30;;;4.90;;
3527;SDS011;1778;47.966;7.854;2022-08-04T06:55:50;4.80;;;4.47;;
3527;SDS011;1778;47.966;7.854;2022-08-04T06:56:52;5.60;;;5.10;;
3527;SDS011;1778;47.966;7.854;2022-08-04T06:57:57;5.32;;;5.03;;
3527;SDS011;1778;47.966;7.854;2022-08-04T06:59:03;5.82;;;5.35;;
3527;SDS011;1778;47.966;7.854;2022-08-04T07:00:10;5.35;;;5.05;;
3527;SDS011;1778;47.966;7.854;2022-08-04T07:01:14;5.35;;;4.95;;
3527;SDS011;1778;47.966;7.854;2022-08-04T07:02:19;5.28;;;4.97;;
3527;SDS011;1778;47.966;7.854;2022-08-04T07:03:26;6.00;;;5.57;;
3527;SDS011;1778;47.966;7.854;2022-08-04T07:04:28;5.57;;;5.22;;
3527;SDS011;1778;47.966;7.854;2022-08-04T07:05:30;6.03;;;5.03;;
3527;SDS011;1778;47.966;7.854;2022-08-04T07:06:33;5.00;;;4.70;;
3527;SDS011;1778;47.966;7.854;2022-08-04T07:07:34;5.28;;;4.93;;
3527;SDS011;1778;47.966;7.854;2022-08-04T07:08:56;4.93;;;4.63;;
3527;SDS011;1778;47.966;7.854;2022-08-04T07:09:59;4.78;;;4.40;;
3527;SDS011;1778;47.966;7.854;2022-08-04T07:11:02;5.35;;;4.85;;
3527;SDS011;1778;47.966;7.854;2022-08-04T07:12:08;5.03;;;4.63;;
3527;SDS011;1778;47.966;7.854;2022-08-04T07:13:10;5.20;;;4.75;;
3527;SDS011;1778;47.966;7.854;2022-08-04T07:14:14;4.72;;;4.43;;
3527;SDS011;1778;47.966;7.854;2022-08-04T07:15:17;5.35;;;4.95;;
3527;SDS011;1778;47.966;7.854;2022-08-04T07:16:20;5.00;;;4.60;;
3527;SDS011;1778;47.966;7.854;2022-08-04T07:17:31;5.30;;;4.75;;
3527;SDS011;1778;47.966;7.854;2022-08-04T07:18:35;5.38;;;4.97;;
3527;SDS011;1778;47.966;7.854;2022-08-04T07:19:36;6.00;;;5.38;;
3527;SDS011;1778;47.966;7.854;2022-08-04T07:20:41;4.82;;;4.60;;
3527;SDS011;1778;47.966;7.854;2022-08-04T07:21:44;4.70;;;4.30;;
3527;SDS011;1778;47.966;7.854;2022-08-04T07:23:06;5.45;;;5.05;;
3527;SDS011;1778;47.966;7.854;2022-08-04T07:24:17;5.10;;;4.65;;
3527;SDS011;1778;47.966;7.854;2022-08-04T07:25:18;4.97;;;4.45;;
3527;SDS011;1778;47.966;7.854;2022-08-04T07:26:40;4.70;;;4.40;;
3527;SDS011;1778;47.966;7.854;2022-08-04T07:27:42;5.03;;;4.60;;
3527;SDS011;1778;47.966;7.854;2022-08-04T07:28:49;4.40;;;4.10;;
3527;SDS011;1778;47.966;7.854;2022-08-04T07:29:50;4.75;;;4.45;;
3527;SDS011;1778;47.966;7.854;2022-08-04T07:30:53;4.38;;;4.13;;
3527;SDS011;1778;47.966;7.854;2022-08-04T07:31:56;4.55;;;4.30;;
3527;SDS011;1778;47.966;7.854;2022-08-04T07:33:00;5.85;;;4.30;;
3527;SDS011;1778;47.966;7.854;2022-08-04T07:34:03;4.90;;;4.57;;
3527;SDS011;1778;47.966;7.854;2022-08-04T07:35:20;4.50;;;4.20;;
3527;SDS011;1778;47.966;7.854;2022-08-04T07:36:43;5.78;;;5.28;;
3527;SDS011;1778;47.966;7.854;2022-08-04T07:37:53;5.47;;;4.97;;
3527;SDS011;1778;47.966;7.854;2022-08-04T07:38:55;4.38;;;3.97;;
3527;SDS011;1778;47.966;7.854;2022-08-04T07:39:57;4.40;;;4.10;;
3527;SDS011;1778;47.966;7.854;2022-08-04T07:40:58;4.63;;;4.43;;
3527;SDS011;1778;47.966;7.854;2022-08-04T07:42:02;9.80;;;4.75;;
3527;SDS011;1778;47.966;7.854;2022-08-04T07:43:04;4.82;;;4.45;;
3527;SDS011;1778;47.966;7.854;2022-08-04T07:44:06;7.65;;;4.70;;
3527;SDS011;1778;47.966;7.854;2022-08-04T07:45:09;4.45;;;4.18;;
3527;SDS011;1778;47.966;7.854;2022-08-04T07:46:10;4.90;;;4.60;;
3527;SDS011;1778;47.966;7.854;2022-08-04T07:47:12;12.50;;;4.82;;
3527;SDS011;1778;47.966;7.854;2022-08-04T07:48:14;4.70;;;4.40;;
3527;SDS011;1778;47.966;7.854;2022-08-04T07:49:19;4.05;;;3.85;;
3527;SDS011;1778;47.966;7.854;2022-08-04T07:50:41;5.13;;;4.72;;
3527;SDS011;1778;47.966;7.854;2022-08-04T07:51:44;5.32;;;4.93;;
3527;SDS011;1778;47.966;7.854;2022-08-04T07:52:46;4.53;;;4.30;;
3527;SDS011;1778;47.966;7.854;2022-08-04T07:54:09;4.80;;;4.40;;
3527;SDS011;1778;47.966;7.854;2022-08-04T07:55:12;4.80;;;4.40;;
3527;SDS011;1778;47.966;7.854;2022-08-04T07:56:14;4.88;;;4.57;;
3527;SDS011;1778;47.966;7.854;2022-08-04T07:57:16;4.97;;;4.22;;
3527;SDS011;1778;47.966;7.854;2022-08-04T07:58:40;4.85;;;4.55;;
3527;SDS011;1778;47.966;7.854;2022-08-04T07:59:42;5.05;;;4.75;;
3527;SDS011;1778;47.966;7.854;2022-08-04T08:00:49;5.20;;;4.70;;
3527;SDS011;1778;47.966;7.854;2022-08-04T08:01:52;4.53;;;4.22;;
3527;SDS011;1778;47.966;7.854;2022-08-04T08:02:54;6.47;;;4.72;;
3527;SDS011;1778;47.966;7.854;2022-08-04T08:03:58;4.60;;;4.30;;
3527;SDS011;1778;47.966;7.854;2022-08-04T08:05:01;4.80;;;4.40;;
3527;SDS011;1778;47.966;7.854;2022-08-04T08:06:04;4.70;;;4.30;;
3527;SDS011;1778;47.966;7.854;2022-08-04T08:07:26;4.03;;;3.83;;
3527;SDS011;1778;47.966;7.854;2022-08-04T08:08:27;7.40;;;4.32;;
3527;SDS011;1778;47.966;7.854;2022-08-04T08:09:29;4.95;;;4.63;;
3527;SDS011;1778;47.966;7.854;2022-08-04T08:10:34;4.95;;;4.60;;
3527;SDS011;1778;47.966;7.854;2022-08-04T08:11:36;4.93;;;4.63;;
3527;SDS011;1778;47.966;7.854;2022-08-04T08:12:58;4.40;;;4.00;;
3527;SDS011;1778;47.966;7.854;2022-08-04T08:14:00;4.30;;;4.10;;
3527;SDS011;1778;47.966;7.854;2022-08-04T08:15:02;4.70;;;4.40;;
3527;SDS011;1778;47.966;7.854;2022-08-04T08:16:06;4.93;;;4.63;;
3527;SDS011;1778;47.966;7.854;2022-08-04T08:17:08;4.72;;;4.43;;
3527;SDS011;1778;47.966;7.854;2022-08-04T08:18:10;4.63;;;4.15;;
3527;SDS011;1778;47.966;7.854;2022-08-04T08:19:12;6.15;;;4.10;;
3527;SDS011;1778;47.966;7.854;2022-08-04T08:20:14;4.38;;;4.05;;
3527;SDS011;1778;47.966;7.854;2022-08-04T08:21:30;4.32;;;4.03;;
3527;SDS011;1778;47.966;7.854;2022-08-04T08:22:32;3.90;;;3.70;;
3527;SDS011;1778;47.966;7.854;2022-08-04T08:23:34;4.20;;;4.00;;
3527;SDS011;1778;47.966;7.854;2022-08-04T08:24:36;4.15;;;3.85;;
3527;SDS011;1778;47.966;7.854;2022-08-04T08:25:37;4.60;;;4.40;;
3527;SDS011;1778;47.966;7.854;2022-08-04T08:26:39;4.20;;;3.90;;
3527;SDS011;1778;47.966;7.854;2022-08-04T08:27:42;4.20;;;4.00;;
3527;SDS011;1778;47.966;7.854;2022-08-04T08:28:56;4.07;;;3.78;;
3527;SDS011;1778;47.966;7.854;2022-08-04T08:29:59;4.43;;;4.13;;
3527;SDS011;1778;47.966;7.854;2022-08-04T08:31:00;4.20;;;3.90;;
3527;SDS011;1778;47.966;7.854;2022-08-04T08:32:07;4.20;;;4.00;;
3527;SDS011;1778;47.966;7.854;2022-08-04T08:33:13;4.70;;;4.40;;
3527;SDS011;1778;47.966;7.854;2022-08-04T08:34:16;4.38;;;4.10;;
3527;SDS011;1778;47.966;7.854;2022-08-04T08:35:32;4.03;;;3.83;;
3527;SDS011;1778;47.966;7.854;2022-08-04T08:36:57;4.20;;;4.00;;
3527;SDS011;1778;47.966;7.854;2022-08-04T08:38:01;5.07;;;4.68;;
3527;SDS011;1778;47.966;7.854;2022-08-04T08:39:16;5.25;;;4.60;;
3527;SDS011;1778;47.966;7.854;2022-08-04T08:43:31;4.55;;;4.25;;
3527;SDS011;1778;47.966;7.854;2022-08-04T08:46:38;4.28;;;4.07;;
3527;SDS011;1778;47.966;7.854;2022-08-04T08:49:47;4.00;;;3.80;;
3527;SDS011;1778;47.966;7.854;2022-08-04T08:55:23;6.18;;;4.40;;
3527;SDS011;1778;47.966;7.854;2022-08-04T08:56:46;4.97;;;3.90;;
3527;SDS011;1778;47.966;7.854;2022-08-04T09:01:56;3.95;;;3.72;;
3527;SDS011;1778;47.966;7.854;2022-08-04T09:04:58;7.88;;;3.80;;
3527;SDS011;1778;47.966;7.854;2022-08-04T09:06:39;3.20;;;3.10;;
3527;SDS011;1778;47.966;7.854;2022-08-04T09:10:44;4.07;;;3.83;;
3527;SDS011;1778;47.966;7.854;2022-08-04T09:13:27;3.85;;;3.55;;
3527;SDS011;1778;47.966;7.854;2022-08-04T09:14:37;4.47;;;3.58;;
3527;SDS011;1778;47.966;7.854;2022-08-04T09:17:20;3.53;;;3.33;;
3527;SDS011;1778;47.966;7.854;2022-08-04T09:21:50;3.45;;;3.25;;
3527;SDS011;1778;47.966;7.854;2022-08-04T09:23:03;7.18;;;3.28;;
3527;SDS011;1778;47.966;7.854;2022-08-04T09:24:21;3.33;;;3.22;;
3527;SDS011;1778;47.966;7.854;2022-08-04T09:25:45;3.47;;;3.28;;
3527;SDS011;1778;47.966;7.854;2022-08-04T09:26:59;3.30;;;3.20;;
3527;SDS011;1778;47.966;7.854;2022-08-04T09:28:07;17.67;;;3.17;;
3527;SDS011;1778;47.966;7.854;2022-08-04T09:29:40;3.58;;;3.28;;
3527;SDS011;1778;47.966;7.854;2022-08-04T09:30:51;3.97;;;3.67;;
3527;SDS011;1778;47.966;7.854;2022-08-04T09:32:07;3.83;;;3.53;;
3527;SDS011;1778;47.966;7.854;2022-08-04T09:33:21;3.40;;;3.10;;
3527;SDS011;1778;47.966;7.854;2022-08-04T09:43:35;7.63;;;4.00;;
3527;SDS011;1778;47.966;7.854;2022-08-04T09:45:09;3.67;;;3.40;;
3527;SDS011;1778;47.966;7.854;2022-08-04T09:46:38;3.50;;;3.22;;
3527;SDS011;1778;47.966;7.854;2022-08-04T09:47:56;3.53;;;3.28;;
3527;SDS011;1778;47.966;7.854;2022-08-04T09:50:42;3.00;;;2.90;;
3527;SDS011;1778;47.966;7.854;2022-08-04T10:00:04;3.15;;;3.05;;
3527;SDS011;1778;47.966;7.854;2022-08-04T10:01:15;4.15;;;3.00;;
3527;SDS011;1778;47.966;7.854;2022-08-04T10:02:23;3.22;;;3.13;;
3527;SDS011;1778;47.966;7.854;2022-08-04T10:03:32;3.10;;;3.00;;
3527;SDS011;1778;47.966;7.854;2022-08-04T10:04:38;4.13;;;2.97;;
3527;SDS011;1778;47.966;7.854;2022-08-04T10:13:04;3.08;;;2.97;;
3527;SDS011;1778;47.966;7.854;2022-08-04T10:14:27;3.20;;;3.10;;
3527;SDS011;1778;47.966;7.854;2022-08-04T10:20:04;3.05;;;2.95;;
3527;SDS011;1778;47.966;7.854;2022-08-04T10:22:30;3.05;;;2.90;;
3527;SDS011;1778;47.966;7.854;2022-08-04T10:27:54;2.65;;;2.55;;
3527;SDS011;1778;47.966;7.854;2022-08-04T10:29:01;2.65;;;2.55;;
3527;SDS011;1778;47.966;7.854;2022-08-04T10:30:10;2.40;;;2.30;;
3527;SDS011;1778;47.966;7.854;2022-08-04T10:31:21;2.22;;;2.13;;
3527;SDS011;1778;47.966;7.854;2022-08-04T10:32:30;2.92;;;2.83;;
3527;SDS011;1778;47.966;7.854;2022-08-04T10:33:49;2.63;;;2.53;;
3527;SDS011;1778;47.966;7.854;2022-08-04T10:36:11;3.40;;;3.10;;
3527;SDS011;1778;47.966;7.854;2022-08-04T10:37:18;3.08;;;2.97;;
3527;SDS011;1778;47.966;7.854;2022-08-04T10:39:06;3.15;;;3.05;;
3527;SDS011;1778;47.966;7.854;2022-08-04T10:41:51;3.00;;;2.90;;
3527;SDS011;1778;47.966;7.854;2022-08-04T10:46:05;2.35;;;2.30;;
3527;SDS011;1778;47.966;7.854;2022-08-04T10:47:15;2.78;;;2.60;;
3527;SDS011;1778;47.966;7.854;2022-08-04T10:49:44;2.38;;;2.28;;
3527;SDS011;1778;47.966;7.854;2022-08-04T10:50:55;3.25;;;2.90;;